Portada
METAR-TAF:

METAR-TAF

Aeroports :

Txungking, Xina

latitud: 29-31N, longitud: 106-29E, altitud: 351 m

Observació

L'informe es va fer fa 1 hora i 3 minuts, a les 21:00 UTC
Vent 8 kt del Sud-Est
Temperatura 28°C
Humitat 55%
Pressió 1008 hPa
Visibilitat 10 km o més
sense núvols per sota de 1500 mi sense presència de cumulonimbus.

METAR: ZUCK 242100Z 13004MPS CAVOK 28/18 Q1008 NOSIG

Hora: 06:03 (22:03 UTC)

Pronòstic

L'informe es va fer fa 7 hores i 1 minuts, a les 15:02 UTC
Pronòstic vàlid del 24 a les 18 UTC al 25 a les 18 UTC
Vent 6 kt del Sud-Est
Visibilitat: 6000 m
Escasses núvols a una alçada de 5000 ft

TAF: ZUCK 241502Z 2418/2518 14003MPS 6000 FEW050 TX35/2507Z TN26/2421Z

Observacions i pronòstics meteorològics de més de 4000 aeroports (METAR i TAF).

Les estacions disponibles són els punts grocs i vermells al mapa.

Posi el ratolí al punt desitjat per veure el nom de l'estació.

Feu clic per veure les observacions i els pronòstics meteorològics.

Per canviar el mapa: feu clic els botons verds amb una creu de color negre per apropar; al botó verd amb un guió per allunyar la imatge; o en les fletxes verdes per a mapes adjacents.


METAR-TAF: